MRPV

Tobias Bolanos International Airport

San Jose, Costa Rica
TAF COR MRPV 230500Z 2306/2406 10016KT 9999 FEW040 TX26/2319Z TN18/2310Z TEMPO 2306/2320 09020G31KT
Issued Valid From Valid To
Jan-23 @ 05:00 UTC
(3 hours ago)
Jan-23 @ 06:00 UTC
(2 hours ago)
Jan-24 @ 06:00 UTC
(in 22 hours)
Jan-23 @ 06:00 to Jan-24 @ 06:00
TAF COR MRPV 230500Z 2306/2406 10016KT 9999 FEW040 TX26/2319Z TN18/2310Z
Wind Visibility Clouds
100° at 16 knots 10,000+ meters
  • Few at 4,000' AGL
Temporary Jan-23 @ 06:00 to Jan-23 @ 20:00
TEMPO 2306/2320 09020G31KT
Wind
90° at 20 knots
 Gusting to 31 knots
TAF COR MRPV 230500Z 2306/2406 10016KT 9999 FEW040 TX26/2319Z TN18/2310Z TEMPO 2306/2320 09020G31KT
Issued Jan-23 @ 05:00 UTC
(3 hours ago)
Valid From Jan-23 @ 06:00 UTC
(2 hours ago)
Valid To Jan-24 @ 06:00 UTC
(in 22 hours)
Jan-23 @ 06:00 - Jan-24 @ 06:00
Wind Visibility
100° at 16 knots 10,000+ meters
Clouds
  • Few at 4,000' AGL
Temporary Jan-23 @ 06:00 - Jan-23 @ 20:00
Wind
90° at 20 knots
 Gusting to 31 knots